Time;durP1;ratioP1;P1;durP2;ratioP2;P2;SDS_P1;SDS_P2;PMS_P1;PMS_P2;Temp;Humidity;BMP_temperature;BMP_pressure;BME280_temperature;BME280_humidity;BME280_pressure;Samples;Min_cycle;Max_cycle;Signal;HPM_P1;HPM_P2
2023/07/13 00:01:59;;;;;;;16.70;15.43;;;23.90;99.90;;;;;;5001056;28;20026;-89
2023/07/13 01:25:09;;;;;;;12.40;11.25;;;22.80;99.90;;;;;;5639537;23;20449;-93
2023/07/13 01:27:36;;;;;;;11.95;10.85;;;22.80;99.90;;;;;;5002584;28;20041;-91
2023/07/13 01:30:03;;;;;;;11.77;10.73;;;22.70;99.90;;;;;;5003491;28;20035;-89
2023/07/13 01:32:32;;;;;;;12.82;11.52;;;22.70;99.90;;;;;;5000615;28;20589;-92
2023/07/13 01:34:59;;;;;;;13.38;11.95;;;22.70;99.90;;;;;;5000099;28;20025;-92
2023/07/13 01:37:26;;;;;;;12.75;11.60;;;22.60;99.90;;;;;;5016217;28;20025;-91
2023/07/13 01:39:53;;;;;;;12.27;11.07;;;22.60;99.90;;;;;;4980196;28;20027;-92
2023/07/13 01:42:20;;;;;;;12.63;11.50;;;22.60;99.90;;;;;;4980333;28;20034;-91
2023/07/13 01:44:48;;;;;;;12.38;11.15;;;22.60;99.90;;;;;;4977146;28;20502;-92
2023/07/13 01:47:14;;;;;;;12.27;11.10;;;22.50;99.90;;;;;;4963635;28;20022;-91
2023/07/13 01:49:41;;;;;;;11.32;10.32;;;22.60;99.90;;;;;;4980876;28;20031;-92
2023/07/13 01:52:08;;;;;;;11.88;10.77;;;22.50;99.90;;;;;;4980686;28;20034;-92
2023/07/13 01:54:34;;;;;;;11.77;10.60;;;22.60;99.90;;;;;;4989181;28;20030;-92
2023/07/13 01:57:01;;;;;;;12.40;10.75;;;22.50;99.90;;;;;;4983804;28;20054;-91
2023/07/13 01:59:27;;;;;;;11.73;10.63;;;22.40;99.90;;;;;;4983822;28;20026;-91
2023/07/13 02:01:54;;;;;;;11.55;10.70;;;22.40;99.90;;;;;;4983786;28;20069;-92
2023/07/13 02:04:20;;;;;;;12.15;10.95;;;22.40;99.90;;;;;;4983880;28;20394;-91
2023/07/13 02:06:47;;;;;;;11.38;10.38;;;22.40;99.90;;;;;;4985082;28;20061;-92
2023/07/13 02:09:16;;;;;;;11.55;10.55;;;22.40;99.90;;;;;;4987305;28;20080;-91
2023/07/13 02:11:42;;;;;;;12.90;11.73;;;22.40;99.90;;;;;;4983953;28;20216;-91
2023/07/13 02:14:12;;;;;;;12.23;10.90;;;22.50;99.90;;;;;;4983609;28;20508;-91
2023/07/13 02:16:38;;;;;;;12.00;10.57;;;22.50;99.90;;;;;;4983369;28;20506;-91
2023/07/13 02:19:06;;;;;;;11.70;10.70;;;22.50;99.90;;;;;;4983693;28;20026;-92
2023/07/13 02:21:33;;;;;;;12.13;11.02;;;22.40;99.90;;;;;;4983578;28;20064;-92
2023/07/13 02:24:00;;;;;;;13.48;11.25;;;22.30;99.90;;;;;;4983138;28;20037;-93
2023/07/13 02:26:27;;;;;;;12.95;10.73;;;22.20;99.90;;;;;;5013938;28;20061;-92
2023/07/13 02:28:54;;;;;;;11.93;10.95;;;22.10;99.90;;;;;;4999490;28;20091;-91
2023/07/13 02:31:20;;;;;;;16.05;11.20;;;22.10;99.90;;;;;;4999487;28;20034;-91
2023/07/13 02:33:47;;;;;;;11.40;10.40;;;22.10;99.90;;;;;;4999214;28;20104;-91
2023/07/13 02:36:16;;;;;;;11.35;10.40;;;22.20;99.90;;;;;;4999474;28;20240;-91
2023/07/13 02:38:44;;;;;;;11.98;10.63;;;22.10;99.90;;;;;;4999499;28;20018;-92
2023/07/13 02:41:12;;;;;;;12.75;11.45;;;22.00;99.90;;;;;;4999271;28;20376;-92
2023/07/13 02:43:40;;;;;;;11.57;10.57;;;22.10;99.90;;;;;;4999160;28;20522;-92
2023/07/13 02:46:12;;;;;;;12.05;10.18;;;22.10;99.90;;;;;;4999331;28;20479;-91
2023/07/13 02:48:39;;;;;;;11.90;10.80;;;22.10;99.90;;;;;;4997317;28;20030;-92
2023/07/13 02:51:07;;;;;;;12.38;11.27;;;22.00;99.90;;;;;;4999252;28;20026;-92
2023/07/13 02:53:35;;;;;;;12.02;10.73;;;22.00;99.90;;;;;;5015550;28;20030;-91
2023/07/13 02:56:02;;;;;;;13.35;11.50;;;21.90;99.90;;;;;;4999076;28;20022;-92
2023/07/13 02:58:29;;;;;;;12.63;10.85;;;21.90;99.90;;;;;;5015259;28;20034;-94
2023/07/13 03:00:56;;;;;;;13.65;10.70;;;21.80;99.90;;;;;;4995578;28;20022;-93
2023/07/13 03:03:23;;;;;;;11.50;10.40;;;21.90;99.90;;;;;;4995464;28;20400;-93
2023/07/13 03:06:05;;;;;;;12.55;11.35;;;21.80;99.90;;;;;;4995717;28;20423;-91
2023/07/13 03:08:38;;;;;;;11.20;10.15;;;21.90;99.90;;;;;;4995388;28;20056;-92
2023/07/13 03:11:11;;;;;;;13.52;10.27;;;21.90;99.90;;;;;;4995640;28;20026;-91
2023/07/13 03:13:41;;;;;;;10.57;9.63;;;21.80;99.90;;;;;;4999240;28;20087;-91
2023/07/13 03:16:11;;;;;;;12.18;10.48;;;21.70;99.90;;;;;;5014612;28;20030;-92
2023/07/13 03:18:38;;;;;;;11.82;10.63;;;21.70;99.90;;;;;;4998696;28;20492;-91
2023/07/13 03:21:11;;;;;;;11.02;9.93;;;21.70;99.90;;;;;;4998857;28;20022;-93
2023/07/13 03:23:39;;;;;;;10.60;9.60;;;21.70;99.90;;;;;;4995058;28;20038;-92
2023/07/13 03:26:16;;;;;;;10.85;9.77;;;21.70;99.90;;;;;;4984746;28;20512;-91
2023/07/13 03:28:43;;;;;;;11.70;10.50;;;21.60;99.90;;;;;;4959392;28;20035;-91
2023/07/13 03:31:20;;;;;;;12.18;10.88;;;21.70;99.90;;;;;;4959598;28;20484;-89
2023/07/13 03:33:47;;;;;;;12.35;11.15;;;21.70;99.90;;;;;;4975626;28;20035;-92
2023/07/13 03:36:19;;;;;;;12.05;10.45;;;21.70;99.90;;;;;;4975251;28;20026;-90
2023/07/13 03:38:52;;;;;;;13.18;10.30;;;21.70;99.90;;;;;;4959483;28;20062;-89
2023/07/13 03:41:23;;;;;;;12.05;10.85;;;21.70;99.90;;;;;;4975424;28;20030;-89
2023/07/13 03:43:53;;;;;;;11.50;10.55;;;21.80;99.90;;;;;;4978529;28;20038;-90
2023/07/13 03:46:22;;;;;;;12.07;11.00;;;21.80;99.90;;;;;;4943798;28;20081;-90
2023/07/13 03:48:49;;;;;;;12.02;10.60;;;21.90;99.90;;;;;;4980561;28;20026;-91
2023/07/13 03:51:18;;;;;;;12.65;11.00;;;21.80;99.90;;;;;;4978474;28;20022;-90
2023/07/13 03:53:47;;;;;;;11.85;10.88;;;21.80;99.90;;;;;;4962421;28;20050;-90
2023/07/13 03:56:18;;;;;;;11.82;10.82;;;21.90;99.90;;;;;;4978519;28;20030;-89
2023/07/13 03:58:49;;;;;;;12.15;11.02;;;22.00;99.90;;;;;;4978659;28;20133;-90
2023/07/13 04:01:21;;;;;;;12.98;11.75;;;22.10;99.90;;;;;;4978356;28;20119;-91
2023/07/13 04:03:48;;;;;;;12.63;11.43;;;22.30;99.90;;;;;;4978363;28;20042;-94
2023/07/13 04:06:21;;;;;;;14.13;12.40;;;22.30;99.90;;;;;;4962379;28;20022;-91
2023/07/13 04:08:51;;;;;;;13.60;12.40;;;22.50;99.90;;;;;;4962257;28;20034;-94
2023/07/13 04:11:18;;;;;;;12.45;11.30;;;22.50;99.90;;;;;;4959989;28;20031;-94
2023/07/13 04:13:45;;;;;;;12.60;11.52;;;22.60;99.90;;;;;;4975004;28;20027;-95
2023/07/13 04:16:13;;;;;;;14.50;12.35;;;22.70;99.90;;;;;;4974424;28;20039;-93
2023/07/13 04:18:39;;;;;;;12.63;11.63;;;22.80;99.90;;;;;;4971033;28;20091;-93
2023/07/13 04:21:06;;;;;;;14.27;12.60;;;22.90;99.90;;;;;;4978104;28;20062;-95
2023/07/13 04:23:32;;;;;;;14.10;12.98;;;23.00;99.90;;;;;;4961919;28;20038;-93
2023/07/13 04:25:58;;;;;;;14.23;12.82;;;23.10;99.90;;;;;;4977616;28;20407;-92
2023/07/13 04:28:26;;;;;;;13.75;12.60;;;23.30;99.90;;;;;;4961790;28;20030;-93
2023/07/13 04:30:53;;;;;;;15.10;13.20;;;23.30;99.90;;;;;;4962299;28;20037;-92
2023/07/13 04:33:22;;;;;;;14.98;13.57;;;23.50;99.90;;;;;;4962587;28;20484;-91
2023/07/13 04:35:54;;;;;;;15.25;13.75;;;23.70;99.90;;;;;;4958486;28;20027;-91
2023/07/13 04:38:21;;;;;;;16.25;14.82;;;23.90;99.90;;;;;;4942735;28;20038;-93
2023/07/13 04:40:48;;;;;;;15.55;14.30;;;24.00;99.90;;;;;;4942496;28;20531;-91
2023/07/13 04:43:18;;;;;;;15.65;14.23;;;24.10;99.90;;;;;;4942722;28;20054;-90
2023/07/13 04:45:48;;;;;;;16.42;14.77;;;24.40;99.90;;;;;;4958524;28;20058;-92
2023/07/13 04:48:18;;;;;;;16.30;15.10;;;24.90;99.90;;;;;;4961810;28;20034;-91
2023/07/13 04:50:45;;;;;;;17.30;15.65;;;25.40;99.90;;;;;;4961541;28;20058;-92
2023/07/13 04:53:12;;;;;;;17.60;16.10;;;25.80;99.90;;;;;;4977606;28;20045;-92
2023/07/13 04:55:39;;;;;;;16.73;15.32;;;26.40;99.90;;;;;;4961382;28;20057;-90
2023/07/13 04:58:05;;;;;;;16.70;15.38;;;27.20;99.90;;;;;;4977851;28;20117;-94
2023/07/13 05:00:32;;;;;;;15.63;14.50;;;27.90;99.90;;;;;;4962232;28;20030;-92
2023/07/13 05:02:59;;;;;;;16.20;15.07;;;28.50;99.90;;;;;;4961355;28;20042;-91
2023/07/13 05:05:26;;;;;;;19.33;17.42;;;29.20;99.90;;;;;;4961394;28;20025;-92
2023/07/13 05:07:53;;;;;;;18.20;16.90;;;29.60;99.90;;;;;;4961405;28;20054;-93
2023/07/13 05:10:20;;;;;;;18.55;17.15;;;29.80;99.90;;;;;;4961839;28;20031;-93
2023/07/13 05:12:46;;;;;;;20.23;17.42;;;29.90;99.90;;;;;;4962935;28;20034;-93
2023/07/13 05:15:13;;;;;;;19.17;17.55;;;29.90;99.90;;;;;;4962562;28;20057;-92
2023/07/13 05:17:40;;;;;;;18.73;17.23;;;30.10;99.90;;;;;;4977581;28;20487;-92
2023/07/13 05:20:08;;;;;;;18.67;17.38;;;30.30;99.90;;;;;;4959735;28;20113;-93
2023/07/13 05:22:35;;;;;;;19.10;17.33;;;30.80;99.90;;;;;;4964496;28;20034;-92
2023/07/13 05:25:04;;;;;;;18.95;17.27;;;30.50;99.90;;;;;;4965434;28;20411;-92
2023/07/13 05:27:31;;;;;;;18.90;17.50;;;30.70;99.90;;;;;;4965864;28;20173;-91
2023/07/13 05:29:57;;;;;;;19.23;17.67;;;31.20;99.90;;;;;;4965065;28;20034;-92
2023/07/13 05:32:24;;;;;;;19.90;18.50;;;31.70;99.90;;;;;;4965397;28;20403;-94
2023/07/13 05:34:50;;;;;;;21.48;19.73;;;31.90;99.90;;;;;;4966387;28;20023;-92
2023/07/13 05:37:18;;;;;;;20.38;18.77;;;32.00;99.90;;;;;;4966325;28;20034;-93
2023/07/13 05:39:44;;;;;;;21.05;19.35;;;32.50;99.90;;;;;;4981555;28;20030;-93
2023/07/13 05:42:10;;;;;;;21.50;19.90;;;32.80;99.90;;;;;;4965077;28;20026;-92
2023/07/13 05:44:37;;;;;;;22.05;20.13;;;32.60;99.90;;;;;;4986022;28;20015;-92
2023/07/13 05:47:03;;;;;;;21.58;20.17;;;32.60;99.90;;;;;;4983879;28;20034;-93
2023/07/13 05:49:30;;;;;;;23.35;21.10;;;33.20;99.90;;;;;;4968109;28;20058;-94
2023/07/13 05:51:57;;;;;;;22.38;20.88;;;33.70;99.90;;;;;;4964944;28;20052;-92
2023/07/13 05:54:24;;;;;;;23.70;21.70;;;34.10;99.90;;;;;;4964741;28;20068;-92
2023/07/13 05:56:56;;;;;;;23.13;21.10;;;33.90;99.90;;;;;;4964761;28;20080;-93
2023/07/13 05:59:23;;;;;;;24.02;22.08;;;34.50;99.90;;;;;;4964803;28;20033;-93
2023/07/13 06:01:52;;;;;;;23.67;22.17;;;35.00;99.90;;;;;;4980737;28;20039;-93
2023/07/13 06:04:19;;;;;;;24.10;22.02;;;35.40;99.90;;;;;;4964251;28;20042;-94
2023/07/13 06:06:48;;;;;;;23.98;21.77;;;35.30;99.90;;;;;;4953238;28;20109;-90
2023/07/13 12:21:58;;;;;;;25.55;24.15;;;39.10;61.50;;;;;;5619097;23;20342;-90
2023/07/13 12:24:27;;;;;;;25.40;24.00;;;38.80;65.90;;;;;;4983337;28;20049;-94
2023/07/13 12:29:25;;;;;;;25.25;23.55;;;38.90;64.00;;;;;;4982351;28;20042;-93
2023/07/13 12:31:52;;;;;;;25.98;24.35;;;38.80;64.60;;;;;;4975869;28;20036;-92
2023/07/13 12:34:26;;;;;;;25.17;23.77;;;38.80;65.50;;;;;;4975772;28;20039;-93
2023/07/13 12:37:00;;;;;;;25.83;24.20;;;38.90;67.90;;;;;;4943974;28;20047;-93
2023/07/13 12:39:34;;;;;;;24.88;23.48;;;38.60;63.90;;;;;;4918163;29;20032;-94
2023/07/13 12:42:27;;;;;;;25.90;24.30;;;38.60;63.20;;;;;;4917712;29;20126;-94
2023/07/13 12:44:57;;;;;;;25.95;24.35;;;38.40;66.30;;;;;;5040576;23;20041;-94
2023/07/13 12:47:24;;;;;;;25.83;24.27;;;38.50;65.60;;;;;;5000649;28;20117;-93
2023/07/13 12:49:59;;;;;;;25.98;24.38;;;38.60;63.70;;;;;;4980822;28;20034;-93
2023/07/13 12:52:35;;;;;;;26.02;24.42;;;38.50;66.50;;;;;;4969573;28;20022;-93
2023/07/13 12:55:34;;;;;;;25.98;24.58;;;38.50;66.40;;;;;;4982862;28;20422;-93
2023/07/13 12:58:04;;;;;;;25.80;24.30;;;38.60;67.80;;;;;;4986366;28;20092;-94
2023/07/13 13:00:39;;;;;;;25.63;24.05;;;38.60;67.70;;;;;;5000474;28;20030;-94
2023/07/13 13:03:43;;;;;;;25.75;24.25;;;38.60;67.80;;;;;;4980543;28;20042;-94
2023/07/13 13:06:30;;;;;;;26.13;24.40;;;38.40;67.80;;;;;;4994417;28;20502;-94
2023/07/13 13:11:37;;;;;;;25.08;23.55;;;38.60;67.60;;;;;;5030984;23;20399;-93
2023/07/13 13:14:07;;;;;;;24.23;22.83;;;38.50;67.80;;;;;;5001121;28;20041;-93
2023/07/13 13:16:45;;;;;;;24.98;23.58;;;38.40;70.90;;;;;;5006631;28;20032;-94
2023/07/13 13:19:36;;;;;;;25.30;23.63;;;38.30;70.20;;;;;;5007045;28;20038;-94
2023/07/13 13:22:05;;;;;;;25.15;23.65;;;38.20;71.40;;;;;;5023598;28;20030;-94
2023/07/13 13:24:32;;;;;;;25.90;24.40;;;38.00;71.40;;;;;;5012477;28;20038;-92
2023/07/13 13:27:01;;;;;;;25.77;24.17;;;37.40;73.30;;;;;;5002356;28;20113;-93
2023/07/13 13:32:19;;;;;;;25.38;23.88;;;37.40;73.00;;;;;;5312241;23;20490;-93
2023/07/13 13:34:50;;;;;;;25.70;23.90;;;37.40;71.70;;;;;;5020567;28;20057;-93
2023/07/13 13:37:25;;;;;;;25.80;24.10;;;37.50;72.10;;;;;;5015208;28;20029;-94
2023/07/13 13:39:55;;;;;;;26.40;24.80;;;37.50;73.90;;;;;;5019119;28;20049;-93
2023/07/13 13:42:24;;;;;;;26.50;24.80;;;37.50;73.70;;;;;;5003660;28;20394;-94
2023/07/13 13:44:53;;;;;;;25.00;23.35;;;37.40;74.30;;;;;;5024450;28;20033;-94
2023/07/13 13:47:58;;;;;;;;;;;;;;;;;;;;;
2023/07/13 13:53:16;;;;;;;25.20;23.63;;;36.80;75.40;;;;;;5040676;28;20049;-93
2023/07/13 13:55:43;;;;;;;25.17;23.58;;;36.80;76.20;;;;;;5007449;28;20022;-93
2023/07/13 13:58:10;;;;;;;25.35;23.75;;;37.00;75.80;;;;;;5005171;28;20021;-91
2023/07/13 14:00:39;;;;;;;24.88;23.13;;;37.00;75.30;;;;;;5005644;28;20036;-94
2023/07/13 14:03:15;;;;;;;26.40;24.80;;;37.10;72.00;;;;;;5005868;28;20045;-94
2023/07/13 14:05:46;;;;;;;25.98;24.23;;;37.00;73.60;;;;;;5005473;28;20029;-94
2023/07/13 14:08:20;;;;;;;25.90;24.27;;;37.00;75.60;;;;;;5006037;28;20132;-91
2023/07/13 14:10:50;;;;;;;25.27;23.58;;;37.00;75.20;;;;;;5005503;28;20036;-92
2023/07/13 14:13:26;;;;;;;25.17;23.75;;;37.00;77.20;;;;;;5007938;28;20028;-93
2023/07/13 14:21:14;;;;;;;25.00;23.60;;;36.40;75.50;;;;;;5012136;23;20105;-93
2023/07/13 15:01:48;;;;;;;24.65;23.35;;;35.90;75.70;;;;;;2009560;23;20205;-92
2023/07/13 15:08:48;;;;;;;24.55;22.77;;;36.10;78.50;;;;;;5140592;23;20395;-94
2023/07/13 18:38:26;;;;;;;18.80;17.20;;;28.60;99.90;;;;;;6100169;22;21124;-93
2023/07/13 18:56:39;;;;;;;22.58;20.38;;;28.20;99.90;;;;;;3210105;23;20369;-93
2023/07/13 19:06:28;;;;;;;20.58;19.00;;;27.90;99.90;;;;;;5679085;22;20815;-94
2023/07/13 19:11:57;;;;;;;21.33;19.45;;;27.80;99.90;;;;;;5622680;23;20050;-93
2023/07/13 19:14:23;;;;;;;22.63;20.00;;;27.70;99.90;;;;;;5007703;28;20025;-93
2023/07/13 19:19:27;;;;;;;21.77;20.10;;;27.70;99.90;;;;;;4980343;28;20098;-93
2023/07/13 19:21:56;;;;;;;20.58;19.17;;;27.60;99.90;;;;;;4965358;28;20062;-93
2023/07/13 19:24:25;;;;;;;20.83;19.27;;;27.60;99.90;;;;;;4949351;28;20038;-92
2023/07/13 19:26:54;;;;;;;20.98;19.58;;;27.50;99.90;;;;;;4966561;28;20037;-92
2023/07/13 19:29:45;;;;;;;21.83;19.67;;;27.60;99.90;;;;;;4947769;29;20027;-93
2023/07/13 22:06:00;;;;;;;8.85;8.00;;;25.40;99.90;;;;;;5932818;23;21033;-87
2023/07/13 22:08:37;;;;;;;11.55;8.60;;;25.30;99.90;;;;;;5021987;28;20070;-92
2023/07/13 22:11:12;;;;;;;15.18;8.18;;;25.30;99.90;;;;;;5002262;28;20030;-91
2023/07/13 22:13:40;;;;;;;11.75;8.60;;;25.30;99.90;;;;;;4990032;28;20117;-90
2023/07/13 22:16:23;;;;;;;11.63;7.80;;;25.20;99.90;;;;;;4981907;28;20121;-92
2023/07/13 22:19:20;;;;;;;10.13;8.50;;;25.20;99.90;;;;;;4992056;28;20034;-92
2023/07/13 22:21:50;;;;;;;9.93;8.32;;;25.20;99.90;;;;;;4992836;28;20050;-91
2023/07/13 22:24:24;;;;;;;18.70;9.15;;;25.10;99.90;;;;;;4984913;28;20150;-93
2023/07/13 22:26:50;;;;;;;14.65;8.73;;;25.10;99.90;;;;;;4982351;28;20113;-94
2023/07/13 22:29:26;;;;;;;14.57;9.20;;;25.10;99.90;;;;;;4994405;28;20038;-94
2023/07/13 22:31:53;;;;;;;11.57;8.02;;;25.00;99.90;;;;;;4970878;28;20023;-91
2023/07/13 22:34:21;;;;;;;13.18;8.35;;;25.00;99.90;;;;;;5012938;28;20030;-90
2023/07/13 22:36:50;;;;;;;17.55;8.88;;;25.00;99.90;;;;;;4997658;28;20019;-93
2023/07/13 22:39:30;;;;;;;14.02;9.25;;;24.90;99.90;;;;;;4986680;28;20097;-93
2023/07/13 22:42:03;;;;;;;13.88;8.88;;;24.90;99.90;;;;;;4978181;28;20027;-93
2023/07/13 22:44:33;;;;;;;14.75;8.35;;;25.00;99.90;;;;;;5262331;23;20054;-89
2023/07/13 23:35:35;;;;;;;17.42;8.80;;;24.50;99.90;;;;;;5717387;23;20101;-82
2023/07/13 23:38:03;;;;;;;9.93;7.57;;;24.40;99.90;;;;;;4994397;28;20369;-81
2023/07/13 23:40:30;;;;;;;13.63;8.48;;;24.30;99.90;;;;;;4994343;28;20030;-84
2023/07/13 23:42:59;;;;;;;17.38;9.20;;;24.10;99.90;;;;;;4975535;28;20031;-83
2023/07/13 23:45:27;;;;;;;19.63;9.23;;;24.00;99.90;;;;;;4971324;28;20038;-86
2023/07/13 23:47:57;;;;;;;13.40;8.60;;;24.00;99.90;;;;;;4974595;28;20023;-85
2023/07/13 23:50:32;;;;;;;12.63;8.60;;;23.90;99.90;;;;;;4958311;28;20453;-82
2023/07/13 23:53:02;;;;;;;13.10;8.32;;;23.90;99.90;;;;;;4975768;28;20031;-83
2023/07/13 23:55:32;;;;;;;13.65;8.00;;;23.90;99.90;;;;;;4975900;28;20023;-85
2023/07/13 23:58:01;;;;;;;11.80;8.57;;;23.90;99.90;;;;;;4975034;28;20464;-82
